VVPB/HUI METAR and TAF weather

Enter ICAO airport designator
Station Type Date Time Source
VVPB METAR 2023/01/29 19:00 UTC NOAA

VVPB 291900Z 29002KT 7000 SCT013 BKN050 14/13 Q1022 NOSIG


Station Type Date Time Source
VVPB Decoded METAR 2023/01/29 19:00 UTC NOAA

Hue, Vietnam (VVPB) 16-24N 107-41E 17M
Jan 29, 2023 - 02:00 PM EST / 2023.01.29 1900 UTC
Wind: from the WNW (290 degrees) at 2 MPH (2 KT):0
Visibility: 4 mile(s):0
Sky conditions: mostly cloudy
Temperature: 57 F (14 C)
Dew Point: 55 F (13 C)
Relative Humidity: 93%
Pressure (altimeter): 30.18 in. Hg (1022 hPa)
ob: VVPB 291900Z 29002KT 7000 SCT013 BKN050 14/13 Q1022 NOSIG
cycle: 19

Station Type Date Time Source
VVPB TAF 2023/01/29 18:00 UTC NOAA

TAF VVPB 291700Z 2918/3018 26007KT 7000 SCT013 BKN050
TEMPO 2918/3002 3500 RA BR

Example: see airport list